To NAV CANADA Home Page Login to a new session Search on AWWS site Disclaimer Vers la page française équivalente Tips FAQ What's new on the site To the Forecasts and Observations / NOTAM section To "File a Flight Plan" website Publications and other links Update of the User's profile FIC Telephone Numbers My Weather Data Folder Route Weather Data Regional Weather Data Local Weather Data To the Forecasts and Observations / NOTAM section
Request Generated 03/19/2019 at 23:19:50 UTC . Weather information available at that time is displayed.

METAR/TAF

CORAL HARBOUR/NU    

METAR CYZS 192300Z 34023KT 4SM BLSN SKC M23/M27 A2991 RMK SLP139=
SPECI CYZS 192242Z 34022KT 4SM BLSN SKC M22/M26 A2989 RMK SLP134=
METAR CYZS 192200Z 33014KT 15SM SKC M22/M26 A2989 RMK SLP133=
METAR CYZS 192100Z 33012KT 15SM SKC M22/M26 A2988 RMK SLP128=

TAF AMD CYZS 192306Z 1923/2007 34014KT P6SM SKC TEMPO 1923/2007
34020KT 4SM BLSN
RMK NXT FCST BY 200100Z=
Your time UTC time
Weather data provided by Environment Canada and NAV CANADA